Allen, Alabama
Current Conditions -  °F | °C
As of 6:53 PM on Tuesday 27 Jan 2015 (Local Time) from KGZH Reporting Station
Clear Clear  
Wind Chill:   Ceiling: Unl
Heat Index:   Visibility: 10mi
Dew Point:   Wind: 3mph
Humidity: 71%   Direction: 300°WNW
Pressure: 30.08"   Gusts: NA
Location:  31.6°N, 87.71°W
Report Text: KGZH 280053Z AUTO 30003KT 10SM CLR 08/03 A3008 RMK AO2 SLP185 T00830033
Loading
Personal Weather Stations






























Interactive Weather Map New forecast layout! Learn more

10-Day Weather Forecast

Advertisements
Track Severe Weather on mobile